createdAt,value
2018-06-30T00:02:02.993Z,19.10
2018-06-30T00:04:31.344Z,19.10
2018-06-30T00:06:59.879Z,19.00
2018-06-30T00:09:28.269Z,19.00
2018-06-30T00:11:56.903Z,18.90
2018-06-30T00:14:25.270Z,18.90
2018-06-30T00:16:53.625Z,18.90
2018-06-30T00:19:21.976Z,18.90
2018-06-30T00:21:50.327Z,18.90
2018-06-30T00:24:18.684Z,18.80
2018-06-30T00:26:47.088Z,18.80
2018-06-30T00:29:15.490Z,18.80
2018-06-30T00:31:43.966Z,18.70
2018-06-30T00:34:12.356Z,18.70
2018-06-30T00:36:40.724Z,18.60
2018-06-30T00:39:09.613Z,18.60
2018-06-30T00:41:37.951Z,18.60
2018-06-30T00:44:06.835Z,18.50
2018-06-30T00:46:35.279Z,18.50
2018-06-30T00:51:31.977Z,18.50
2018-06-30T00:54:01.171Z,18.40
2018-06-30T00:56:30.126Z,18.40
2018-06-30T00:58:58.530Z,18.40
2018-06-30T01:01:26.876Z,18.40
2018-06-30T01:03:55.250Z,18.30
2018-06-30T01:06:24.171Z,18.30
2018-06-30T01:08:52.545Z,18.30
2018-06-30T01:13:49.135Z,18.20
2018-06-30T01:16:17.515Z,18.20
2018-06-30T01:18:45.880Z,18.20
2018-06-30T01:21:14.236Z,18.10
2018-06-30T01:23:42.745Z,18.10
2018-06-30T01:26:11.801Z,18.20
2018-06-30T01:31:08.195Z,18.10
2018-06-30T01:33:36.671Z,18.10
2018-06-30T01:36:05.571Z,18.10
2018-06-30T01:38:34.041Z,18.10
2018-06-30T01:41:02.435Z,18.10
2018-06-30T01:43:30.792Z,18.10
2018-06-30T01:45:59.161Z,18.00
2018-06-30T01:48:27.512Z,18.00
2018-06-30T01:53:24.267Z,18.00
2018-06-30T01:55:52.629Z,17.90
2018-06-30T01:58:21.041Z,17.50
2018-06-30T02:03:17.659Z,17.10
2018-06-30T02:05:46.053Z,17.10
2018-06-30T02:08:14.380Z,17.10
2018-06-30T02:10:42.861Z,17.00
2018-06-30T02:13:11.824Z,17.00
2018-06-30T02:15:40.181Z,17.00
2018-06-30T02:18:09.281Z,16.90
2018-06-30T02:20:37.619Z,17.00
2018-06-30T02:23:06.009Z,17.00
2018-06-30T02:25:34.779Z,17.00
2018-06-30T02:28:03.212Z,17.00
2018-06-30T02:30:31.599Z,17.00
2018-06-30T02:33:00.032Z,17.00
2018-06-30T02:35:28.394Z,17.00
2018-06-30T02:37:57.209Z,16.90
2018-06-30T02:40:25.568Z,16.90
2018-06-30T02:42:53.965Z,16.90
2018-06-30T02:45:22.317Z,16.90
2018-06-30T02:47:50.717Z,16.90
2018-06-30T02:50:19.176Z,16.90
2018-06-30T02:52:47.523Z,17.00
2018-06-30T02:55:15.878Z,17.00
2018-06-30T02:57:44.244Z,17.00
2018-06-30T03:00:13.399Z,16.90
2018-06-30T03:02:42.023Z,16.90
2018-06-30T03:05:10.472Z,16.90
2018-06-30T03:07:38.809Z,16.90
2018-06-30T03:10:07.166Z,16.90
2018-06-30T03:12:35.488Z,16.90
2018-06-30T03:15:03.898Z,16.90
2018-06-30T03:17:32.361Z,16.90
2018-06-30T03:20:00.716Z,16.90
2018-06-30T03:22:29.089Z,16.80
2018-06-30T03:24:57.545Z,16.80
2018-06-30T03:27:26.465Z,16.80
2018-06-30T03:29:54.820Z,16.70
2018-06-30T03:32:23.285Z,16.70
2018-06-30T03:37:19.841Z,16.60
2018-06-30T03:39:48.302Z,16.60
2018-06-30T03:42:16.645Z,16.60
2018-06-30T03:49:41.152Z,16.60
2018-06-30T03:54:37.748Z,16.50
2018-06-30T03:57:06.089Z,16.50
2018-06-30T03:59:34.506Z,16.60
2018-06-30T04:02:02.913Z,16.60
2018-06-30T04:04:31.389Z,16.60
2018-06-30T04:06:59.734Z,16.60
2018-06-30T04:09:28.664Z,16.60
2018-06-30T04:11:57.120Z,16.60
2018-06-30T04:14:25.465Z,16.60
2018-06-30T04:16:53.837Z,16.60
2018-06-30T04:19:22.182Z,16.60
2018-06-30T04:21:50.645Z,16.60
2018-06-30T04:24:19.748Z,16.60
2018-06-30T04:26:48.664Z,16.60
2018-06-30T04:29:17.023Z,16.70
2018-06-30T04:31:45.344Z,16.70
2018-06-30T04:34:13.744Z,16.70
2018-06-30T04:36:42.164Z,16.70
2018-06-30T04:39:10.771Z,16.80
2018-06-30T04:41:39.224Z,16.80
2018-06-30T04:46:35.746Z,16.80
2018-06-30T04:49:04.136Z,16.80
2018-06-30T04:51:32.552Z,16.90
2018-06-30T04:54:00.893Z,16.90
2018-06-30T04:56:29.466Z,16.90
2018-06-30T04:58:57.968Z,17.00
2018-06-30T05:01:26.349Z,17.00
2018-06-30T05:03:54.700Z,17.00
2018-06-30T05:06:23.083Z,17.10
2018-06-30T05:08:51.536Z,17.10
2018-06-30T05:11:19.922Z,17.20
2018-06-30T05:13:48.441Z,17.20
2018-06-30T05:16:16.804Z,17.20
2018-06-30T05:18:45.208Z,17.30
2018-06-30T05:23:41.808Z,17.40
2018-06-30T05:26:10.884Z,17.40
2018-06-30T05:28:39.257Z,17.50
2018-06-30T05:31:07.585Z,17.60
2018-06-30T05:33:36.057Z,17.60
2018-06-30T05:36:04.448Z,17.70
2018-06-30T05:41:07.718Z,17.90
2018-06-30T05:43:36.026Z,18.00
2018-06-30T05:46:04.608Z,18.00
2018-06-30T05:48:33.600Z,18.10
2018-06-30T05:51:01.942Z,18.30
2018-06-30T05:53:30.380Z,18.40
2018-06-30T05:55:58.806Z,18.50
2018-06-30T05:58:27.280Z,18.60
2018-06-30T06:00:55.840Z,18.70
2018-06-30T06:03:24.193Z,18.80
2018-06-30T06:05:52.700Z,18.90
2018-06-30T06:08:21.041Z,19.00
2018-06-30T06:13:24.268Z,19.20
2018-06-30T06:15:52.617Z,19.30
2018-06-30T06:18:21.015Z,19.50
2018-06-30T06:20:49.432Z,19.70
2018-06-30T06:25:52.695Z,20.30
2018-06-30T06:28:21.000Z,20.50
2018-06-30T06:30:49.414Z,20.70
2018-06-30T06:33:17.768Z,20.90
2018-06-30T06:35:46.245Z,21.00
2018-06-30T06:38:14.649Z,21.20
2018-06-30T06:40:43.152Z,21.30
2018-06-30T06:43:11.782Z,21.40
2018-06-30T06:45:40.132Z,21.60
2018-06-30T06:48:08.564Z,21.70
2018-06-30T06:50:36.944Z,21.90
2018-06-30T06:53:05.910Z,22.00
2018-06-30T06:55:34.296Z,22.10
2018-06-30T06:58:03.004Z,22.20
2018-06-30T07:00:32.061Z,22.30
2018-06-30T07:03:00.827Z,22.40
2018-06-30T07:05:29.285Z,22.50
2018-06-30T07:07:57.702Z,22.50
2018-06-30T07:10:26.095Z,22.60
2018-06-30T07:12:55.212Z,22.70
2018-06-30T07:15:23.664Z,22.80
2018-06-30T07:17:51.988Z,22.90
2018-06-30T07:20:20.398Z,23.00
2018-06-30T07:22:48.754Z,23.10
2018-06-30T07:25:17.126Z,23.20
2018-06-30T07:27:45.524Z,23.20
2018-06-30T07:32:42.223Z,23.30
2018-06-30T07:35:10.672Z,23.40
2018-06-30T07:37:39.027Z,23.60
2018-06-30T07:42:35.726Z,23.80
2018-06-30T07:45:04.231Z,23.90
2018-06-30T07:47:32.600Z,24.00
2018-06-30T07:50:01.027Z,24.10
2018-06-30T07:52:29.392Z,24.20
2018-06-30T07:54:57.774Z,24.30
2018-06-30T07:57:26.240Z,24.40
2018-06-30T07:59:54.603Z,24.50
2018-06-30T08:02:23.052Z,24.60
2018-06-30T08:04:51.507Z,24.70
2018-06-30T08:17:12.715Z,25.20
2018-06-30T08:19:41.068Z,25.30
2018-06-30T08:22:09.472Z,25.40
2018-06-30T08:24:37.848Z,25.60
2018-06-30T08:27:06.264Z,25.60
2018-06-30T08:29:34.684Z,25.70
2018-06-30T08:32:03.029Z,25.90
2018-06-30T08:34:31.499Z,26.00
2018-06-30T08:36:59.834Z,26.20
2018-06-30T08:39:28.183Z,26.30
2018-06-30T08:41:56.570Z,26.50
2018-06-30T08:44:24.926Z,26.60
2018-06-30T08:46:53.381Z,26.70
2018-06-30T08:49:21.785Z,26.70
2018-06-30T08:51:50.179Z,26.80
2018-06-30T08:54:18.525Z,26.90
2018-06-30T08:56:47.567Z,26.90
2018-06-30T08:59:15.948Z,26.90
2018-06-30T09:01:44.311Z,26.90
2018-06-30T09:04:12.715Z,27.00
2018-06-30T09:06:41.148Z,27.00
2018-06-30T09:09:10.565Z,27.10
2018-06-30T09:11:38.974Z,27.20
2018-06-30T09:14:07.558Z,27.30
2018-06-30T09:16:36.080Z,27.40
2018-06-30T09:19:04.653Z,27.50
2018-06-30T09:21:33.044Z,27.60
2018-06-30T09:24:01.530Z,27.70
2018-06-30T09:28:58.277Z,28.00
2018-06-30T09:31:26.749Z,28.20
2018-06-30T09:33:55.086Z,28.30
2018-06-30T09:36:23.475Z,28.40
2018-06-30T09:38:51.850Z,28.50
2018-06-30T09:41:20.248Z,28.60
2018-06-30T09:43:49.120Z,28.70
2018-06-30T09:48:45.697Z,29.00
2018-06-30T09:51:14.095Z,29.00
2018-06-30T09:53:42.526Z,29.10
2018-06-30T09:56:10.934Z,29.20
2018-06-30T09:58:42.514Z,29.30
2018-06-30T10:01:10.922Z,29.40
2018-06-30T10:03:40.131Z,29.60
2018-06-30T10:06:08.556Z,29.70
2018-06-30T10:08:36.960Z,29.70
2018-06-30T10:11:05.383Z,29.80
2018-06-30T10:13:33.765Z,29.90
2018-06-30T10:16:02.195Z,30.00
2018-06-30T10:18:30.627Z,30.00
2018-06-30T10:20:59.205Z,30.10
2018-06-30T10:23:28.224Z,30.20
2018-06-30T10:25:56.601Z,30.30
2018-06-30T10:28:24.963Z,30.30
2018-06-30T10:30:53.407Z,30.40
2018-06-30T10:33:21.777Z,30.40
2018-06-30T10:35:50.229Z,30.40
2018-06-30T10:38:18.607Z,30.50
2018-06-30T10:40:47.006Z,30.60
2018-06-30T10:43:15.439Z,30.70
2018-06-30T10:45:43.840Z,30.80
2018-06-30T10:48:12.288Z,30.80
2018-06-30T10:50:40.659Z,31.00
2018-06-30T10:53:09.069Z,31.20
2018-06-30T10:55:37.522Z,31.30
2018-06-30T10:58:05.957Z,31.40
2018-06-30T11:00:34.471Z,31.40
2018-06-30T11:03:02.916Z,31.50
2018-06-30T11:05:31.878Z,31.50
2018-06-30T11:08:00.245Z,31.70
2018-06-30T11:10:28.671Z,31.70
2018-06-30T11:12:57.847Z,31.70
2018-06-30T11:15:26.269Z,31.90
2018-06-30T11:17:54.667Z,32.00
2018-06-30T11:20:23.074Z,31.90
2018-06-30T11:22:51.559Z,32.00
2018-06-30T11:25:19.955Z,32.10
2018-06-30T11:27:48.351Z,32.20
2018-06-30T11:30:16.751Z,32.30
2018-06-30T11:32:45.163Z,32.40
2018-06-30T11:37:41.642Z,32.50
2018-06-30T11:40:10.101Z,32.60
2018-06-30T11:42:38.508Z,32.80
2018-06-30T11:45:06.931Z,32.80
2018-06-30T11:47:35.328Z,32.90
2018-06-30T11:50:03.847Z,33.10
2018-06-30T11:52:32.330Z,32.90
2018-06-30T11:55:00.704Z,33.10
2018-06-30T11:57:29.164Z,33.10
2018-06-30T11:59:57.565Z,33.30
2018-06-30T12:02:25.980Z,33.40
2018-06-30T12:07:29.102Z,33.30
2018-06-30T12:09:57.474Z,33.50
2018-06-30T12:12:25.840Z,33.60
2018-06-30T12:14:54.286Z,33.60
2018-06-30T12:17:30.574Z,33.70
2018-06-30T12:20:01.111Z,33.70
2018-06-30T12:22:29.616Z,33.90
2018-06-30T12:24:58.124Z,33.90
2018-06-30T12:27:26.705Z,34.00
2018-06-30T12:29:55.140Z,34.10
2018-06-30T12:32:23.621Z,33.90
2018-06-30T12:34:52.005Z,33.90
2018-06-30T12:39:48.506Z,34.10
2018-06-30T12:42:16.943Z,34.20
2018-06-30T12:44:45.399Z,34.20
2018-06-30T12:47:13.750Z,34.20
2018-06-30T12:49:42.715Z,34.10
2018-06-30T12:54:39.505Z,34.20
2018-06-30T12:57:07.954Z,34.40
2018-06-30T12:59:36.431Z,34.60
2018-06-30T13:02:04.864Z,34.60
2018-06-30T13:04:33.282Z,34.50
2018-06-30T13:07:01.666Z,34.50
2018-06-30T13:09:30.126Z,34.60
2018-06-30T13:11:58.913Z,34.00
2018-06-30T13:14:27.324Z,33.10
2018-06-30T13:16:56.394Z,33.30
2018-06-30T13:19:24.813Z,33.80
2018-06-30T13:21:53.228Z,34.10
2018-06-30T13:24:21.622Z,34.30
2018-06-30T13:26:50.624Z,34.60
2018-06-30T13:29:19.042Z,34.80
2018-06-30T13:31:47.500Z,34.80
2018-06-30T13:34:15.906Z,34.70
2018-06-30T13:36:44.342Z,34.40
2018-06-30T13:39:14.424Z,34.40
2018-06-30T13:41:43.164Z,34.60
2018-06-30T13:44:12.168Z,34.80
2018-06-30T13:46:40.594Z,34.90
2018-06-30T13:49:09.176Z,35.10
2018-06-30T13:51:37.598Z,34.90
2018-06-30T13:54:06.444Z,35.20
2018-06-30T13:56:34.950Z,35.30
2018-06-30T13:59:03.442Z,35.40
2018-06-30T14:01:31.765Z,35.40
2018-06-30T14:04:00.172Z,35.40
2018-06-30T14:06:28.707Z,35.50
2018-06-30T14:08:57.202Z,35.60
2018-06-30T14:11:25.771Z,35.60
2018-06-30T14:13:54.701Z,35.60
2018-06-30T14:16:23.122Z,35.60
2018-06-30T14:18:51.545Z,35.40
2018-06-30T14:21:20.695Z,35.40
2018-06-30T14:23:49.761Z,35.40
2018-06-30T14:26:18.162Z,35.60
2018-06-30T14:28:46.578Z,35.60
2018-06-30T14:31:14.969Z,35.70
2018-06-30T14:33:44.141Z,35.70
2018-06-30T14:36:12.726Z,35.70
2018-06-30T14:38:41.444Z,35.70
2018-06-30T14:41:10.517Z,35.80
2018-06-30T14:46:07.313Z,35.60
2018-06-30T14:48:35.936Z,35.50
2018-06-30T14:51:04.400Z,35.60
2018-06-30T14:53:32.926Z,35.60
2018-06-30T14:56:01.422Z,35.60
2018-06-30T14:58:29.840Z,35.20
2018-06-30T15:00:58.262Z,35.50
2018-06-30T15:03:26.700Z,35.50
2018-06-30T15:05:55.331Z,35.30
2018-06-30T15:08:24.355Z,35.10
2018-06-30T15:10:52.869Z,35.30
2018-06-30T15:13:21.318Z,35.40
2018-06-30T15:15:49.755Z,35.60
2018-06-30T15:18:18.297Z,35.60
2018-06-30T15:20:46.691Z,35.80
2018-06-30T15:23:15.128Z,35.90
2018-06-30T15:25:43.523Z,35.70
2018-06-30T15:28:11.893Z,35.80
2018-06-30T15:30:40.331Z,35.80
2018-06-30T15:33:09.541Z,35.80
2018-06-30T15:38:06.187Z,35.60
2018-06-30T15:40:34.577Z,35.60
2018-06-30T15:43:02.968Z,35.60
2018-06-30T15:45:31.420Z,35.50
2018-06-30T15:47:59.827Z,35.50
2018-06-30T15:50:28.244Z,35.60
2018-06-30T15:52:56.655Z,35.60
2018-06-30T15:55:25.119Z,35.60
2018-06-30T15:57:53.564Z,35.60
2018-06-30T16:00:21.945Z,35.60
2018-06-30T16:02:50.393Z,35.60
2018-06-30T16:10:15.245Z,35.70
2018-06-30T16:12:44.241Z,35.70
2018-06-30T16:15:12.650Z,35.60
2018-06-30T16:17:41.060Z,35.50
2018-06-30T16:20:09.474Z,35.30
2018-06-30T16:22:38.191Z,35.20
2018-06-30T16:25:07.113Z,35.10
2018-06-30T16:27:35.603Z,35.00
2018-06-30T16:30:04.737Z,35.00
2018-06-30T16:35:01.213Z,34.70
2018-06-30T16:37:29.612Z,34.70
2018-06-30T16:39:57.983Z,34.60
2018-06-30T16:42:26.353Z,34.60
2018-06-30T16:44:54.804Z,34.60
2018-06-30T16:47:23.201Z,34.60
2018-06-30T16:49:51.635Z,34.50
2018-06-30T16:52:20.087Z,34.40
2018-06-30T16:54:48.551Z,34.30
2018-06-30T16:57:17.133Z,34.40
2018-06-30T16:59:46.641Z,34.20
2018-06-30T17:04:45.325Z,34.00
2018-06-30T17:07:14.721Z,33.90
2018-06-30T17:09:43.691Z,33.80
2018-06-30T17:12:12.639Z,33.70
2018-06-30T17:27:38.937Z,33.60
2018-06-30T17:30:08.918Z,33.10
2018-06-30T17:32:37.875Z,33.00
2018-06-30T17:35:08.262Z,32.90
2018-06-30T17:37:37.565Z,32.70
2018-06-30T17:40:06.601Z,32.60
2018-06-30T17:42:35.717Z,32.40
2018-06-30T17:45:05.465Z,32.20
2018-06-30T17:47:34.398Z,31.80
2018-06-30T17:50:02.859Z,31.60
2018-06-30T17:52:31.254Z,31.40
2018-06-30T17:54:59.828Z,31.20
2018-06-30T17:57:28.243Z,30.90
2018-06-30T17:59:56.660Z,30.60
2018-06-30T18:02:25.075Z,30.40
2018-06-30T18:04:53.587Z,30.20
2018-06-30T18:07:22.049Z,30.00
2018-06-30T18:09:50.516Z,29.80
2018-06-30T18:12:18.908Z,29.70
2018-06-30T18:14:47.306Z,29.50
2018-06-30T18:19:43.946Z,29.30
2018-06-30T18:22:12.357Z,29.10
2018-06-30T18:24:40.768Z,29.10
2018-06-30T18:27:09.150Z,29.00
2018-06-30T18:29:37.536Z,28.90
2018-06-30T18:32:06.048Z,28.80
2018-06-30T18:34:34.488Z,28.70
2018-06-30T18:37:02.926Z,28.60
2018-06-30T18:39:31.397Z,28.50
2018-06-30T18:41:59.766Z,28.40
2018-06-30T18:44:28.196Z,28.30
2018-06-30T18:46:56.595Z,28.30
2018-06-30T18:49:25.032Z,28.10
2018-06-30T18:51:54.435Z,28.10
2018-06-30T18:54:22.825Z,28.00
2018-06-30T18:56:51.262Z,27.90
2018-06-30T18:59:20.268Z,27.80
2018-06-30T19:04:16.800Z,27.70
2018-06-30T19:06:45.900Z,27.60
2018-06-30T19:09:14.267Z,27.60
2018-06-30T19:11:42.730Z,27.50
2018-06-30T19:14:11.878Z,27.40
2018-06-30T19:16:40.226Z,27.30
2018-06-30T19:19:08.636Z,27.30
2018-06-30T19:21:37.146Z,27.20
2018-06-30T19:24:05.613Z,27.10
2018-06-30T19:29:02.105Z,27.00
2018-06-30T19:31:30.531Z,26.90
2018-06-30T19:33:59.601Z,26.90
2018-06-30T19:36:27.982Z,26.80
2018-06-30T19:38:56.386Z,26.80
2018-06-30T19:41:24.812Z,26.70
2018-06-30T19:43:53.198Z,26.60
2018-06-30T19:46:21.585Z,26.60
2018-06-30T19:48:50.115Z,26.50
2018-06-30T19:51:18.554Z,26.40
2018-06-30T19:53:46.920Z,26.40
2018-06-30T19:56:15.382Z,26.30
2018-06-30T19:58:43.767Z,26.20
2018-06-30T20:01:13.040Z,26.20
2018-06-30T20:03:41.588Z,26.10
2018-06-30T20:06:10.649Z,26.10
2018-06-30T20:08:38.995Z,26.00
2018-06-30T20:11:07.460Z,25.90
2018-06-30T20:13:35.798Z,25.70
2018-06-30T20:16:04.238Z,25.60
2018-06-30T20:18:32.736Z,25.50
2018-06-30T20:21:01.988Z,25.40
2018-06-30T20:23:30.361Z,25.30
2018-06-30T20:25:58.734Z,25.30
2018-06-30T20:28:27.634Z,25.20
2018-06-30T20:30:56.696Z,25.10
2018-06-30T20:33:25.098Z,25.10
2018-06-30T20:35:53.597Z,25.10
2018-06-30T20:38:21.988Z,25.00
2018-06-30T20:40:50.419Z,25.00
2018-06-30T20:43:18.936Z,24.90
2018-06-30T20:48:16.685Z,24.80
2018-06-30T20:50:45.140Z,24.70
2018-06-30T20:53:13.496Z,24.60
2018-06-30T20:55:41.892Z,24.60
2018-06-30T20:58:10.268Z,24.50
2018-06-30T21:00:38.634Z,24.50
2018-06-30T21:03:07.247Z,24.30
2018-06-30T21:05:36.726Z,24.20
2018-06-30T21:08:05.210Z,24.10
2018-06-30T21:10:33.692Z,24.00
2018-06-30T21:13:02.212Z,23.80
2018-06-30T21:15:31.229Z,23.70
2018-06-30T21:17:59.605Z,23.50
2018-06-30T21:20:27.965Z,23.50
2018-06-30T21:22:56.324Z,23.40
2018-06-30T21:25:24.720Z,23.30
2018-06-30T21:27:53.697Z,23.20
2018-06-30T21:30:22.869Z,23.20
2018-06-30T21:33:00.698Z,23.00
2018-06-30T21:35:29.109Z,22.90
2018-06-30T21:37:57.461Z,22.80
2018-06-30T21:40:25.849Z,22.70
2018-06-30T21:42:54.223Z,22.60
2018-06-30T21:45:29.815Z,22.50
2018-06-30T21:47:58.198Z,22.50
2018-06-30T21:50:26.566Z,22.40
2018-06-30T21:52:54.954Z,22.30
2018-06-30T21:55:23.414Z,22.20
2018-06-30T21:57:51.790Z,22.20
2018-06-30T22:00:30.800Z,22.10
2018-06-30T22:02:59.196Z,22.00
2018-06-30T22:05:27.573Z,21.90
2018-06-30T22:07:56.118Z,21.80
2018-06-30T22:10:24.509Z,21.70
2018-06-30T22:12:52.936Z,21.70
2018-06-30T22:15:21.312Z,21.50
2018-06-30T22:17:49.791Z,21.50
2018-06-30T22:20:18.162Z,21.40
2018-06-30T22:22:46.551Z,21.40
2018-06-30T22:25:14.944Z,21.30
2018-06-30T22:27:43.361Z,21.30
2018-06-30T22:30:11.739Z,21.30
2018-06-30T22:32:40.104Z,21.30
2018-06-30T22:35:08.531Z,21.40
2018-06-30T22:37:36.947Z,21.40
2018-06-30T22:40:16.637Z,21.40
2018-06-30T22:42:45.725Z,21.50
2018-06-30T22:45:14.556Z,21.50
2018-06-30T22:47:43.067Z,21.50
2018-06-30T22:50:11.480Z,21.60
2018-06-30T22:52:39.905Z,21.60
2018-06-30T22:55:08.381Z,21.60
2018-06-30T22:57:37.016Z,21.50
2018-06-30T23:00:08.232Z,21.50
2018-06-30T23:02:36.651Z,21.40
2018-06-30T23:05:05.362Z,21.40
2018-06-30T23:07:33.857Z,21.30
2018-06-30T23:10:02.220Z,21.20
2018-06-30T23:12:30.640Z,21.20
2018-06-30T23:14:59.133Z,21.10
2018-06-30T23:17:27.537Z,21.10
2018-06-30T23:19:56.017Z,21.00
2018-06-30T23:22:36.094Z,21.00
2018-06-30T23:25:04.472Z,20.90
2018-06-30T23:27:32.827Z,20.80
2018-06-30T23:30:01.289Z,20.80
2018-06-30T23:32:29.641Z,20.70
2018-06-30T23:34:58.055Z,20.60
2018-06-30T23:37:26.523Z,20.50
2018-06-30T23:39:55.011Z,20.40
2018-06-30T23:42:23.439Z,20.30
2018-06-30T23:44:51.977Z,20.30
2018-06-30T23:47:20.426Z,20.20
2018-06-30T23:52:17.086Z,20.10
2018-06-30T23:54:45.422Z,20.10
2018-06-30T23:57:13.790Z,20.00
